createdAt,value
2019-06-26T00:00:14.591Z,7.20
2019-06-26T00:01:14.579Z,7.00
2019-06-26T00:02:14.591Z,7.40
2019-06-26T00:03:14.558Z,6.50
2019-06-26T00:04:14.545Z,7.20
2019-06-26T00:05:14.548Z,7.00
2019-06-26T00:06:14.518Z,6.80
2019-06-26T00:07:14.538Z,7.20
2019-06-26T00:08:14.528Z,7.40
2019-06-26T00:09:14.495Z,7.00
2019-06-26T00:10:14.488Z,7.70
2019-06-26T00:11:14.461Z,7.20
2019-06-26T00:12:14.484Z,6.90
2019-06-26T00:13:25.593Z,7.00
2019-06-26T00:14:15.434Z,7.30
2019-06-26T00:15:14.422Z,7.20
2019-06-26T00:16:14.415Z,7.10
2019-06-26T00:17:14.442Z,6.90
2019-06-26T00:18:14.386Z,7.20
2019-06-26T00:19:14.447Z,7.10
2019-06-26T00:20:14.364Z,7.40
2019-06-26T00:21:14.366Z,7.30
2019-06-26T00:22:14.365Z,7.30
2019-06-26T00:23:14.328Z,7.30
2019-06-26T00:24:14.323Z,7.50
2019-06-26T00:25:14.310Z,7.60
2019-06-26T00:26:14.376Z,7.50
2019-06-26T00:27:14.366Z,7.20
2019-06-26T00:28:14.277Z,7.30
2019-06-26T00:29:14.265Z,7.30
2019-06-26T00:30:14.256Z,7.50
2019-06-26T00:31:14.241Z,7.20
2019-06-26T00:32:14.249Z,7.30
2019-06-26T00:33:14.227Z,7.60
2019-06-26T00:34:14.205Z,7.40
2019-06-26T00:35:14.197Z,7.40
2019-06-26T00:36:14.250Z,7.20
2019-06-26T00:37:14.204Z,7.60
2019-06-26T00:38:14.167Z,7.50
2019-06-26T00:39:14.155Z,7.30
2019-06-26T00:40:14.140Z,7.40
2019-06-26T00:41:14.130Z,7.50
2019-06-26T00:42:14.139Z,7.40
2019-06-26T00:43:14.108Z,7.60
2019-06-26T00:44:14.104Z,7.00
2019-06-26T00:45:14.084Z,7.40
2019-06-26T00:46:14.089Z,7.20
2019-06-26T00:47:14.083Z,7.70
2019-06-26T00:48:14.058Z,7.60
2019-06-26T00:49:14.101Z,7.30
2019-06-26T00:50:14.027Z,7.60
2019-06-26T00:51:14.021Z,7.60
2019-06-26T00:52:14.027Z,7.40
2019-06-26T00:53:13.999Z,7.50
2019-06-26T00:54:13.983Z,7.50
2019-06-26T00:55:13.977Z,7.60
2019-06-26T00:56:13.965Z,7.40
2019-06-26T00:57:13.973Z,7.70
2019-06-26T00:58:13.967Z,7.30
2019-06-26T00:59:13.937Z,7.70
2019-06-26T01:00:13.945Z,8.50
2019-06-26T01:01:13.914Z,7.50
2019-06-26T01:02:13.917Z,7.70
2019-06-26T01:03:13.883Z,8.00
2019-06-26T01:04:13.869Z,7.90
2019-06-26T01:05:13.869Z,7.60
2019-06-26T01:06:13.862Z,8.40
2019-06-26T01:07:13.859Z,7.90
2019-06-26T01:08:13.825Z,7.90
2019-06-26T01:09:13.850Z,7.80
2019-06-26T01:10:13.814Z,7.90
2019-06-26T01:11:13.794Z,8.20
2019-06-26T01:12:13.797Z,7.70
2019-06-26T01:13:13.777Z,7.90
2019-06-26T01:14:13.758Z,7.70
2019-06-26T01:15:13.752Z,7.50
2019-06-26T01:16:13.786Z,8.00
2019-06-26T01:17:13.760Z,7.70
2019-06-26T01:18:13.717Z,7.60
2019-06-26T01:19:13.708Z,7.50
2019-06-26T01:20:13.693Z,7.80
2019-06-26T01:21:13.686Z,7.80
2019-06-26T01:22:13.694Z,8.00
2019-06-26T01:23:13.657Z,8.40
2019-06-26T01:24:13.655Z,7.90
2019-06-26T01:25:13.643Z,8.30
2019-06-26T01:26:13.627Z,8.00
2019-06-26T01:27:13.638Z,8.30
2019-06-26T01:28:13.610Z,8.00
2019-06-26T01:29:13.602Z,7.70
2019-06-26T01:30:13.600Z,8.20
2019-06-26T01:31:13.581Z,8.20
2019-06-26T01:32:13.581Z,8.10
2019-06-26T01:33:13.555Z,7.60
2019-06-26T01:34:13.538Z,8.10
2019-06-26T01:35:13.529Z,7.60
2019-06-26T01:36:13.513Z,8.10
2019-06-26T01:37:13.543Z,7.80
2019-06-26T01:38:13.493Z,7.80
2019-06-26T01:39:13.488Z,8.10
2019-06-26T01:40:13.483Z,8.20
2019-06-26T01:41:13.465Z,7.70
2019-06-26T01:42:13.469Z,8.00
2019-06-26T01:43:13.435Z,8.30
2019-06-26T01:44:15.200Z,7.90
2019-06-26T01:45:13.432Z,8.30
2019-06-26T01:46:13.405Z,8.20
2019-06-26T01:47:13.417Z,8.00
2019-06-26T01:48:13.379Z,8.20
2019-06-26T01:49:13.374Z,7.90
2019-06-26T01:50:13.360Z,8.30
2019-06-26T01:51:13.351Z,7.90
2019-06-26T01:52:13.349Z,8.50
2019-06-26T01:53:13.322Z,8.30
2019-06-26T01:54:13.314Z,8.10
2019-06-26T01:55:13.310Z,7.80
2019-06-26T01:56:13.297Z,8.60
2019-06-26T01:57:13.297Z,8.40
2019-06-26T01:58:13.339Z,8.00
2019-06-26T01:59:13.254Z,8.30
2019-06-26T02:00:13.369Z,8.60
2019-06-26T02:01:13.236Z,8.50
2019-06-26T02:02:13.248Z,8.10
2019-06-26T02:03:13.218Z,8.80
2019-06-26T02:04:15.577Z,8.60
2019-06-26T02:05:13.195Z,8.60
2019-06-26T02:06:13.183Z,8.90
2019-06-26T02:07:13.189Z,8.80
2019-06-26T02:08:13.156Z,8.80
2019-06-26T02:09:13.152Z,8.80
2019-06-26T02:10:13.152Z,8.80
2019-06-26T02:11:13.138Z,8.60
2019-06-26T02:12:13.133Z,9.00
2019-06-26T02:13:13.125Z,8.80
2019-06-26T02:14:13.087Z,8.80
2019-06-26T02:15:13.100Z,8.70
2019-06-26T02:16:13.074Z,8.90
2019-06-26T02:17:13.111Z,9.00
2019-06-26T02:18:13.048Z,8.90
2019-06-26T02:19:13.039Z,9.10
2019-06-26T02:20:13.027Z,8.70
2019-06-26T02:21:13.017Z,8.70
2019-06-26T02:22:13.043Z,9.20
2019-06-26T02:23:13.003Z,8.70
2019-06-26T02:24:12.980Z,9.50
2019-06-26T02:25:12.989Z,8.80
2019-06-26T02:26:12.966Z,9.70
2019-06-26T02:27:12.972Z,9.50
2019-06-26T02:28:12.937Z,9.50
2019-06-26T02:29:12.934Z,8.90
2019-06-26T02:30:12.915Z,9.40
2019-06-26T02:31:12.899Z,9.70
2019-06-26T02:32:12.954Z,10.40
2019-06-26T02:33:12.878Z,9.10
2019-06-26T02:34:12.870Z,10.20
2019-06-26T02:35:12.857Z,9.30
2019-06-26T02:36:12.846Z,10.10
2019-06-26T02:37:12.846Z,10.50
2019-06-26T02:38:12.828Z,10.40
2019-06-26T02:39:12.814Z,10.00
2019-06-26T02:40:12.800Z,9.70
2019-06-26T02:41:12.790Z,9.70
2019-06-26T02:42:12.799Z,10.50
2019-06-26T02:43:12.770Z,10.30
2019-06-26T02:44:12.765Z,10.80
2019-06-26T02:45:12.745Z,11.60
2019-06-26T02:46:12.734Z,11.30
2019-06-26T02:47:19.675Z,11.70
2019-06-26T02:48:13.717Z,11.30
2019-06-26T02:49:12.703Z,10.70
2019-06-26T02:50:12.706Z,11.10
2019-06-26T02:51:12.686Z,11.10
2019-06-26T02:52:12.685Z,10.80
2019-06-26T02:53:12.666Z,9.70
2019-06-26T02:54:12.649Z,10.30
2019-06-26T02:55:12.648Z,9.90
2019-06-26T02:56:12.621Z,10.70
2019-06-26T02:57:12.628Z,9.80
2019-06-26T02:58:12.596Z,9.30
2019-06-26T02:59:12.587Z,9.40
2019-06-26T03:00:12.576Z,9.30
2019-06-26T03:01:12.577Z,10.10
2019-06-26T03:02:12.589Z,9.40
2019-06-26T03:03:12.543Z,9.70
2019-06-26T03:04:12.531Z,9.50
2019-06-26T03:05:12.533Z,9.50
2019-06-26T03:06:12.512Z,10.10
2019-06-26T03:07:12.522Z,9.60
2019-06-26T03:08:12.489Z,10.00
2019-06-26T03:09:12.483Z,10.00
2019-06-26T03:10:12.476Z,10.40
2019-06-26T03:11:12.463Z,9.70
2019-06-26T03:12:12.455Z,10.30
2019-06-26T03:13:12.429Z,10.20
2019-06-26T03:14:12.426Z,10.60
2019-06-26T03:15:12.407Z,10.60
2019-06-26T03:16:12.412Z,10.60
2019-06-26T03:17:12.407Z,10.30
2019-06-26T03:18:12.376Z,10.50
2019-06-26T03:19:12.367Z,11.40
2019-06-26T03:20:12.399Z,10.60
2019-06-26T03:21:12.341Z,10.70
2019-06-26T03:22:12.458Z,11.50
2019-06-26T03:23:12.319Z,10.60
2019-06-26T03:24:12.314Z,11.00
2019-06-26T03:25:12.300Z,11.00
2019-06-26T03:26:12.285Z,10.80
2019-06-26T03:27:12.295Z,11.40
2019-06-26T03:28:12.265Z,10.70
2019-06-26T03:29:12.252Z,11.30
2019-06-26T03:30:12.256Z,11.20
2019-06-26T03:31:12.235Z,11.70
2019-06-26T03:32:12.240Z,11.50
2019-06-26T03:33:12.220Z,11.30
2019-06-26T03:34:12.273Z,11.70
2019-06-26T03:35:12.193Z,11.20
2019-06-26T03:36:12.180Z,11.50
2019-06-26T03:37:12.176Z,11.90
2019-06-26T03:38:12.157Z,11.20
2019-06-26T03:39:12.140Z,11.70
2019-06-26T03:40:12.130Z,11.60
2019-06-26T03:41:12.119Z,11.60
2019-06-26T03:42:12.122Z,11.20
2019-06-26T03:43:12.105Z,11.90
2019-06-26T03:44:12.085Z,12.00
2019-06-26T03:45:25.279Z,11.70
2019-06-26T03:46:13.067Z,12.00
2019-06-26T03:47:12.070Z,12.10
2019-06-26T03:48:12.042Z,12.30
2019-06-26T03:49:12.038Z,11.90
2019-06-26T03:50:12.019Z,12.00
2019-06-26T03:51:14.117Z,12.20
2019-06-26T03:52:12.016Z,12.00
2019-06-26T03:53:11.996Z,12.10
2019-06-26T03:54:11.978Z,12.10
2019-06-26T03:55:11.965Z,12.80
2019-06-26T03:56:12.002Z,12.60
2019-06-26T03:57:11.969Z,12.30
2019-06-26T03:58:11.936Z,12.60
2019-06-26T03:59:11.917Z,12.40
2019-06-26T04:00:11.902Z,12.50
2019-06-26T04:01:11.892Z,11.90
2019-06-26T04:02:11.907Z,12.40
2019-06-26T04:03:11.890Z,12.60
2019-06-26T04:04:11.859Z,12.50
2019-06-26T04:05:11.845Z,12.50
2019-06-26T04:06:11.842Z,12.60
2019-06-26T04:07:11.844Z,12.70
2019-06-26T04:08:11.825Z,12.40
2019-06-26T04:09:11.808Z,12.70
2019-06-26T04:10:11.802Z,12.60
2019-06-26T04:11:11.780Z,11.70
2019-06-26T04:12:11.791Z,11.90
2019-06-26T04:13:11.758Z,12.40
2019-06-26T04:14:11.750Z,12.30
2019-06-26T04:15:11.742Z,12.60
2019-06-26T04:16:11.735Z,12.40
2019-06-26T04:17:11.736Z,12.60
2019-06-26T04:18:11.708Z,12.10
2019-06-26T04:19:11.693Z,12.30
2019-06-26T04:20:11.682Z,12.40
2019-06-26T04:21:11.671Z,12.60
2019-06-26T04:22:11.707Z,12.70
2019-06-26T04:23:11.651Z,12.60
2019-06-26T04:24:11.632Z,12.60
2019-06-26T04:25:11.626Z,13.20
2019-06-26T04:26:11.618Z,12.70
2019-06-26T04:27:11.621Z,13.60
2019-06-26T04:28:11.597Z,13.20
2019-06-26T04:29:11.580Z,13.50
2019-06-26T04:30:11.566Z,13.30
2019-06-26T04:31:11.555Z,13.20
2019-06-26T04:32:11.590Z,13.60
2019-06-26T04:33:11.546Z,13.10
2019-06-26T04:34:11.522Z,14.10
2019-06-26T04:35:11.512Z,13.40
2019-06-26T04:36:11.504Z,13.40
2019-06-26T04:37:11.517Z,13.20
2019-06-26T04:38:11.483Z,13.10
2019-06-26T04:39:11.468Z,13.60
2019-06-26T04:40:11.457Z,12.70
2019-06-26T04:41:11.442Z,14.00
2019-06-26T04:42:11.448Z,15.70
2019-06-26T04:43:11.421Z,13.90
2019-06-26T04:44:11.416Z,13.30
2019-06-26T04:45:11.400Z,12.80
2019-06-26T04:46:11.394Z,15.10
2019-06-26T04:47:11.401Z,16.20
2019-06-26T04:48:11.370Z,15.80
2019-06-26T04:49:11.357Z,16.30
2019-06-26T04:50:11.354Z,15.60
2019-06-26T04:51:11.337Z,15.80
2019-06-26T04:52:11.358Z,16.10
2019-06-26T04:53:11.309Z,15.20
2019-06-26T04:54:11.299Z,15.90
2019-06-26T04:55:11.296Z,15.80
2019-06-26T04:56:11.272Z,16.10
2019-06-26T04:57:11.310Z,16.70
2019-06-26T04:58:11.268Z,16.10
2019-06-26T04:59:11.263Z,16.00
2019-06-26T05:00:11.230Z,16.20
2019-06-26T05:01:11.275Z,15.40
2019-06-26T05:02:11.226Z,15.40
2019-06-26T05:03:11.214Z,16.60
2019-06-26T05:04:11.206Z,16.30
2019-06-26T05:05:11.180Z,15.50
2019-06-26T05:06:11.162Z,16.20
2019-06-26T05:07:11.174Z,16.00
2019-06-26T05:08:11.143Z,16.50
2019-06-26T05:09:11.130Z,16.80
2019-06-26T05:10:11.126Z,15.60
2019-06-26T05:11:12.852Z,15.80
2019-06-26T05:12:11.115Z,16.00
2019-06-26T05:13:11.095Z,16.30
2019-06-26T05:14:11.086Z,16.40
2019-06-26T05:15:11.073Z,16.40
2019-06-26T05:16:15.595Z,15.30
2019-06-26T05:17:12.060Z,16.60
2019-06-26T05:18:11.039Z,16.20
2019-06-26T05:19:11.031Z,15.70
2019-06-26T05:20:11.187Z,15.80
2019-06-26T05:21:11.050Z,15.90
2019-06-26T05:22:11.008Z,16.10
2019-06-26T05:23:10.974Z,15.60
2019-06-26T05:24:10.972Z,16.20
2019-06-26T05:25:10.959Z,15.70
2019-06-26T05:26:10.954Z,16.40
2019-06-26T05:27:10.952Z,16.20
2019-06-26T05:28:10.922Z,16.50
2019-06-26T05:29:10.906Z,16.20
2019-06-26T05:30:10.909Z,15.90
2019-06-26T05:31:10.892Z,16.50
2019-06-26T05:32:10.903Z,16.20
2019-06-26T05:33:10.861Z,16.00
2019-06-26T05:34:11.272Z,15.70
2019-06-26T05:35:10.843Z,15.20
2019-06-26T05:36:10.831Z,16.50
2019-06-26T05:37:10.853Z,16.50
2019-06-26T05:38:10.805Z,16.50
2019-06-26T05:39:10.801Z,16.30
2019-06-26T05:40:10.788Z,15.90
2019-06-26T05:41:10.797Z,16.40
2019-06-26T05:42:10.779Z,16.50
2019-06-26T05:43:10.758Z,16.30
2019-06-26T05:44:10.741Z,15.90
2019-06-26T05:45:10.727Z,16.10
2019-06-26T05:46:10.728Z,15.90
2019-06-26T05:47:10.728Z,15.80
2019-06-26T05:48:10.696Z,15.90
2019-06-26T05:49:10.690Z,16.30
2019-06-26T05:50:10.956Z,16.90
2019-06-26T05:51:10.673Z,16.10
2019-06-26T05:52:10.663Z,16.00
2019-06-26T05:53:10.644Z,16.30
2019-06-26T05:54:10.625Z,16.30
2019-06-26T05:55:10.614Z,16.30
2019-06-26T05:56:10.604Z,16.10
2019-06-26T05:57:10.706Z,16.80
2019-06-26T05:58:10.589Z,15.20
2019-06-26T05:59:10.622Z,15.50
2019-06-26T06:00:10.695Z,15.70
2019-06-26T06:01:10.550Z,15.80
2019-06-26T06:02:10.556Z,16.00
2019-06-26T06:03:10.529Z,15.20
2019-06-26T06:04:10.521Z,15.50
2019-06-26T06:05:10.549Z,16.10
2019-06-26T06:06:10.489Z,15.70
2019-06-26T06:07:10.505Z,15.60
2019-06-26T06:08:10.478Z,15.90
2019-06-26T06:09:10.459Z,15.20
2019-06-26T06:10:10.449Z,15.40
2019-06-26T06:11:10.435Z,15.70
2019-06-26T06:12:10.446Z,15.40
2019-06-26T06:13:10.417Z,15.80
2019-06-26T06:14:10.405Z,15.20
2019-06-26T06:15:10.581Z,15.60
2019-06-26T06:16:10.375Z,15.50
2019-06-26T06:17:10.383Z,15.50
2019-06-26T06:18:10.357Z,16.00
2019-06-26T06:19:10.359Z,15.80
2019-06-26T06:20:10.336Z,14.90
2019-06-26T06:21:10.331Z,15.10
2019-06-26T06:22:10.330Z,15.60
2019-06-26T06:23:10.308Z,14.90
2019-06-26T06:24:10.288Z,14.30
2019-06-26T06:25:10.288Z,15.10
2019-06-26T06:26:10.270Z,14.60
2019-06-26T06:27:10.382Z,14.40
2019-06-26T06:28:10.271Z,14.70
2019-06-26T06:29:10.239Z,14.90
2019-06-26T06:30:10.224Z,15.40
2019-06-26T06:31:10.220Z,15.10
2019-06-26T06:32:10.216Z,14.70
2019-06-26T06:33:10.212Z,14.30
2019-06-26T06:34:10.178Z,14.60
2019-06-26T06:35:10.174Z,15.00
2019-06-26T06:36:10.158Z,15.40
2019-06-26T06:37:10.159Z,14.00
2019-06-26T06:38:10.136Z,14.30
2019-06-26T06:39:10.124Z,14.50
2019-06-26T06:40:10.118Z,14.20
2019-06-26T06:41:10.366Z,15.20
2019-06-26T06:42:10.108Z,14.40
2019-06-26T06:43:10.076Z,14.50
2019-06-26T06:44:10.064Z,14.70
2019-06-26T06:45:10.059Z,14.50
2019-06-26T06:46:10.046Z,14.40
2019-06-26T06:47:10.051Z,14.10
2019-06-26T06:48:10.034Z,14.30
2019-06-26T06:49:10.013Z,13.10
2019-06-26T06:50:10.031Z,14.60
2019-06-26T06:51:09.995Z,14.40
2019-06-26T06:52:09.994Z,14.40
2019-06-26T06:53:09.971Z,13.90
2019-06-26T06:54:09.960Z,13.90
2019-06-26T06:55:09.958Z,12.70
2019-06-26T06:56:09.941Z,13.80
2019-06-26T06:57:09.951Z,14.40
2019-06-26T06:58:09.907Z,13.90
2019-06-26T06:59:09.896Z,13.90
2019-06-26T07:00:09.893Z,13.90
2019-06-26T07:01:09.888Z,13.50
2019-06-26T07:02:09.913Z,13.70
2019-06-26T07:03:09.872Z,13.00
2019-06-26T07:04:09.841Z,12.90
2019-06-26T07:05:09.983Z,13.20
2019-06-26T07:06:09.826Z,13.10
2019-06-26T07:07:09.833Z,13.00
2019-06-26T07:08:09.799Z,13.10
2019-06-26T07:09:09.787Z,12.80
2019-06-26T07:10:09.777Z,13.00
2019-06-26T07:11:09.766Z,12.90
2019-06-26T07:12:09.770Z,12.60
2019-06-26T07:13:09.751Z,12.10
2019-06-26T07:14:09.724Z,11.50
2019-06-26T07:15:09.747Z,11.80
2019-06-26T07:16:09.708Z,11.90
2019-06-26T07:17:19.811Z,11.20
2019-06-26T07:18:10.686Z,11.40
2019-06-26T07:19:09.679Z,12.40
2019-06-26T07:20:09.784Z,11.60
2019-06-26T07:21:09.649Z,11.20
2019-06-26T07:22:09.662Z,11.10
2019-06-26T07:23:09.698Z,11.40
2019-06-26T07:24:09.619Z,11.60
2019-06-26T07:25:09.607Z,11.70
2019-06-26T07:26:13.217Z,11.00
2019-06-26T07:27:09.613Z,11.00
2019-06-26T07:28:09.609Z,11.20
2019-06-26T07:29:09.591Z,11.20
2019-06-26T07:30:09.558Z,11.20
2019-06-26T07:31:09.544Z,11.10
2019-06-26T07:32:09.567Z,10.50
2019-06-26T07:33:09.522Z,10.60
2019-06-26T07:34:09.510Z,10.40
2019-06-26T07:35:09.499Z,10.60
2019-06-26T07:36:09.495Z,10.70
2019-06-26T07:37:09.566Z,11.30
2019-06-26T07:38:09.464Z,11.10
2019-06-26T07:39:09.666Z,10.80
2019-06-26T07:40:09.464Z,10.30
2019-06-26T07:41:09.449Z,10.60
2019-06-26T07:42:09.416Z,11.10
2019-06-26T07:43:09.445Z,10.80
2019-06-26T07:44:09.406Z,10.30
2019-06-26T07:45:09.388Z,11.20
2019-06-26T07:46:09.390Z,10.70
2019-06-26T07:47:22.369Z,11.40
2019-06-26T07:48:10.351Z,10.20
2019-06-26T07:49:09.350Z,10.50
2019-06-26T07:50:09.326Z,10.00
2019-06-26T07:51:09.337Z,10.30
2019-06-26T07:52:09.307Z,10.40
2019-06-26T07:53:09.308Z,9.90
2019-06-26T07:54:09.324Z,10.10
2019-06-26T07:55:11.906Z,10.20
2019-06-26T07:56:09.275Z,9.60
2019-06-26T07:57:09.252Z,10.10
2019-06-26T07:58:09.274Z,9.30
2019-06-26T07:59:09.253Z,9.60
2019-06-26T08:00:09.220Z,9.20
2019-06-26T08:01:09.240Z,10.20
2019-06-26T08:02:09.196Z,9.10
2019-06-26T08:03:09.185Z,9.40
2019-06-26T08:04:09.217Z,9.50
2019-06-26T08:05:09.162Z,9.30
2019-06-26T08:06:09.169Z,9.10
2019-06-26T08:07:09.143Z,9.50
2019-06-26T08:08:09.128Z,9.00
2019-06-26T08:09:09.150Z,8.70
2019-06-26T08:10:09.135Z,8.70
2019-06-26T08:11:09.107Z,9.20
2019-06-26T08:12:09.090Z,9.40
2019-06-26T08:13:09.074Z,8.90
2019-06-26T08:14:09.089Z,8.50
2019-06-26T08:15:09.062Z,9.10
2019-06-26T08:16:09.061Z,8.60
2019-06-26T08:17:09.040Z,9.00
2019-06-26T08:18:09.021Z,9.00
2019-06-26T08:19:09.032Z,8.90
2019-06-26T08:20:09.010Z,8.60
2019-06-26T08:21:12.429Z,8.90
2019-06-26T08:22:09.005Z,9.20
2019-06-26T08:23:08.966Z,8.10
2019-06-26T08:24:08.976Z,8.80
2019-06-26T08:25:08.955Z,8.80
2019-06-26T08:26:08.965Z,8.40
2019-06-26T08:27:11.984Z,8.30
2019-06-26T08:28:08.920Z,8.40
2019-06-26T08:29:08.933Z,8.20
2019-06-26T08:30:08.990Z,8.80
2019-06-26T08:31:09.015Z,8.70
2019-06-26T08:32:08.896Z,8.40
2019-06-26T08:33:08.871Z,8.60
2019-06-26T08:34:08.847Z,8.30
2019-06-26T08:35:08.851Z,8.30
2019-06-26T08:36:08.826Z,9.00
2019-06-26T08:37:09.551Z,8.90
2019-06-26T08:38:11.297Z,8.70
2019-06-26T08:39:09.816Z,8.30
2019-06-26T08:40:08.826Z,8.50
2019-06-26T08:41:08.769Z,8.10
2019-06-26T08:42:08.768Z,8.10
2019-06-26T08:43:08.754Z,8.20
2019-06-26T08:44:08.749Z,7.90
2019-06-26T08:45:08.743Z,8.40
2019-06-26T08:46:08.717Z,8.50
2019-06-26T08:47:08.702Z,8.10
2019-06-26T08:48:19.252Z,8.10
2019-06-26T08:49:24.429Z,8.40
2019-06-26T08:50:09.705Z,8.10
2019-06-26T08:51:08.664Z,8.00
2019-06-26T08:52:08.662Z,7.80
2019-06-26T08:53:08.641Z,8.10
2019-06-26T08:54:08.626Z,8.40
2019-06-26T08:55:08.653Z,7.90
2019-06-26T08:56:08.623Z,8.10
2019-06-26T08:57:08.657Z,8.20
2019-06-26T08:58:08.590Z,7.50
2019-06-26T08:59:08.571Z,7.80
2019-06-26T09:00:08.589Z,7.40
2019-06-26T09:01:08.559Z,7.30
2019-06-26T09:02:08.554Z,7.30
2019-06-26T09:03:08.543Z,6.30
2019-06-26T09:04:08.551Z,6.10
2019-06-26T09:05:08.531Z,6.00
2019-06-26T09:06:08.512Z,6.00
2019-06-26T09:07:08.486Z,6.20
2019-06-26T09:08:08.602Z,6.30
2019-06-26T09:09:08.483Z,6.50
2019-06-26T09:10:08.470Z,6.80
2019-06-26T09:11:08.442Z,6.60
2019-06-26T09:12:08.434Z,6.90
2019-06-26T09:13:08.490Z,7.10
2019-06-26T09:14:08.434Z,6.70
2019-06-26T09:15:08.421Z,6.80
2019-06-26T09:16:08.405Z,6.80
2019-06-26T09:17:08.385Z,7.30
2019-06-26T09:18:08.376Z,7.60
2019-06-26T09:19:08.395Z,7.20
2019-06-26T09:20:08.370Z,7.70
2019-06-26T09:21:08.344Z,7.70
2019-06-26T09:22:08.323Z,7.30
2019-06-26T09:23:08.318Z,7.10
2019-06-26T09:24:08.319Z,6.40
2019-06-26T09:25:20.926Z,6.50
2019-06-26T09:26:09.280Z,6.40
2019-06-26T09:27:08.274Z,6.70
2019-06-26T09:28:08.263Z,6.50
2019-06-26T09:29:08.366Z,6.60
2019-06-26T09:30:08.278Z,6.90
2019-06-26T09:31:08.240Z,7.00
2019-06-26T09:32:08.230Z,6.40
2019-06-26T09:33:08.727Z,6.40
2019-06-26T09:34:08.197Z,6.30
2019-06-26T09:35:08.212Z,6.10
2019-06-26T09:36:08.172Z,6.50
2019-06-26T09:37:08.180Z,5.70
2019-06-26T09:38:08.167Z,5.70
2019-06-26T09:39:08.156Z,5.30
2019-06-26T09:40:08.152Z,5.80
2019-06-26T09:41:08.127Z,5.80
2019-06-26T09:42:08.115Z,5.90
2019-06-26T09:43:08.103Z,6.40
2019-06-26T09:44:08.091Z,5.70
2019-06-26T09:45:08.106Z,6.00
2019-06-26T09:46:08.070Z,6.10
2019-06-26T09:47:08.057Z,6.30
2019-06-26T09:48:08.044Z,5.90
2019-06-26T09:49:08.056Z,6.20
2019-06-26T09:50:08.068Z,6.00
2019-06-26T09:51:08.011Z,5.70
2019-06-26T09:52:08.012Z,5.70
2019-06-26T09:53:07.993Z,6.00
2019-06-26T09:54:07.981Z,5.70
2019-06-26T09:55:08.004Z,5.90
2019-06-26T09:56:07.968Z,5.70
2019-06-26T09:57:07.961Z,5.90
2019-06-26T09:58:07.943Z,5.50
2019-06-26T09:59:07.935Z,5.80
2019-06-26T10:00:07.985Z,5.90
2019-06-26T10:01:07.972Z,5.90
2019-06-26T10:02:07.898Z,5.70
2019-06-26T10:03:07.892Z,6.20
2019-06-26T10:04:07.873Z,6.20
2019-06-26T10:05:07.888Z,6.20
2019-06-26T10:06:07.850Z,6.50
2019-06-26T10:07:07.854Z,6.40
2019-06-26T10:08:07.881Z,6.60
2019-06-26T10:09:07.819Z,6.50
2019-06-26T10:10:07.838Z,5.60
2019-06-26T10:11:07.813Z,5.60
2019-06-26T10:12:07.860Z,6.10
2019-06-26T10:13:07.790Z,6.20
2019-06-26T10:14:07.769Z,5.80
2019-06-26T10:15:07.774Z,5.30
2019-06-26T10:16:07.769Z,5.40
2019-06-26T10:17:07.735Z,5.30
2019-06-26T10:18:07.765Z,5.60
2019-06-26T10:19:10.623Z,5.10
2019-06-26T10:20:07.743Z,5.10
2019-06-26T10:21:07.698Z,5.00
2019-06-26T10:22:07.689Z,5.10
2019-06-26T10:23:07.682Z,5.10
2019-06-26T10:24:07.665Z,5.10
2019-06-26T10:25:11.096Z,5.20
2019-06-26T10:26:07.704Z,5.30
2019-06-26T10:27:07.636Z,5.10
2019-06-26T10:28:07.630Z,5.00
2019-06-26T10:29:07.615Z,5.60
2019-06-26T10:30:07.632Z,5.20
2019-06-26T10:31:18.355Z,5.30
2019-06-26T10:32:07.582Z,5.80
2019-06-26T10:33:07.583Z,5.40
2019-06-26T10:34:09.975Z,5.20
2019-06-26T10:35:07.574Z,5.40
2019-06-26T10:36:07.549Z,5.10
2019-06-26T10:37:07.548Z,5.50
2019-06-26T10:38:07.519Z,5.60
2019-06-26T10:39:07.518Z,5.00
2019-06-26T10:40:07.526Z,5.20
2019-06-26T10:41:07.506Z,4.70
2019-06-26T10:42:07.542Z,4.50
2019-06-26T10:43:07.480Z,5.00
2019-06-26T10:44:07.463Z,4.80
2019-06-26T10:45:07.494Z,4.60
2019-06-26T10:46:07.447Z,4.50
2019-06-26T10:47:07.439Z,4.70
2019-06-26T10:48:07.473Z,4.80
2019-06-26T10:49:07.441Z,4.80
2019-06-26T10:50:07.431Z,4.80
2019-06-26T10:51:07.407Z,4.60
2019-06-26T10:52:07.394Z,4.80
2019-06-26T10:53:07.389Z,4.80
2019-06-26T10:54:07.412Z,4.80
2019-06-26T10:55:07.420Z,4.70
2019-06-26T10:56:07.366Z,4.60
2019-06-26T10:57:07.352Z,4.80
2019-06-26T10:58:07.348Z,4.90
2019-06-26T10:59:07.332Z,4.20
2019-06-26T11:00:07.351Z,4.50
2019-06-26T11:01:07.346Z,4.50
2019-06-26T11:02:07.330Z,4.70
2019-06-26T11:03:07.308Z,4.10
2019-06-26T11:04:07.292Z,4.40
2019-06-26T11:05:07.319Z,4.10
2019-06-26T11:06:07.281Z,4.40
2019-06-26T11:07:07.278Z,4.50
2019-06-26T11:08:07.282Z,4.30
2019-06-26T11:09:07.254Z,4.40
2019-06-26T11:10:07.283Z,4.40
2019-06-26T11:11:07.256Z,4.00
2019-06-26T11:12:07.240Z,4.10
2019-06-26T11:13:07.224Z,4.30
2019-06-26T11:14:07.230Z,4.10
2019-06-26T11:15:07.229Z,4.30
2019-06-26T11:16:07.211Z,4.10
2019-06-26T11:17:07.206Z,3.90
2019-06-26T11:18:07.202Z,4.30
2019-06-26T11:19:07.181Z,4.40
2019-06-26T11:20:07.270Z,4.30
2019-06-26T11:21:07.163Z,4.00
2019-06-26T11:22:07.203Z,4.10
2019-06-26T11:23:07.200Z,4.10
2019-06-26T11:24:07.150Z,4.00
2019-06-26T11:25:07.164Z,3.90
2019-06-26T11:26:07.134Z,4.00
2019-06-26T11:27:07.117Z,4.00
2019-06-26T11:28:07.116Z,3.80
2019-06-26T11:29:07.108Z,3.70
2019-06-26T11:30:07.202Z,3.60
2019-06-26T11:31:07.100Z,4.30
2019-06-26T11:32:09.431Z,3.90
2019-06-26T11:33:07.099Z,3.60
2019-06-26T11:34:07.075Z,3.80
2019-06-26T11:35:07.107Z,3.40
2019-06-26T11:36:07.065Z,3.70
2019-06-26T11:37:07.138Z,3.40
2019-06-26T11:38:07.080Z,3.50
2019-06-26T11:39:07.051Z,3.80
2019-06-26T11:40:07.674Z,3.80
2019-06-26T11:41:07.054Z,3.70
2019-06-26T11:42:07.037Z,3.80
2019-06-26T11:43:07.016Z,3.50
2019-06-26T11:44:07.014Z,3.60
2019-06-26T11:45:07.038Z,3.50
2019-06-26T11:46:06.995Z,3.60
2019-06-26T11:47:06.997Z,3.70
2019-06-26T11:48:07.003Z,3.80
2019-06-26T11:49:06.973Z,3.40
2019-06-26T11:50:06.980Z,3.90
2019-06-26T11:51:06.963Z,3.80
2019-06-26T11:52:06.962Z,3.60
2019-06-26T11:53:06.959Z,3.30
2019-06-26T11:54:06.940Z,3.90
2019-06-26T11:55:06.944Z,3.60
2019-06-26T11:56:06.913Z,3.90
2019-06-26T11:57:06.906Z,3.80
2019-06-26T11:58:06.941Z,4.20
2019-06-26T11:59:06.891Z,4.00
2019-06-26T12:00:06.906Z,4.50
2019-06-26T12:01:06.875Z,4.50
2019-06-26T12:02:06.855Z,4.50
2019-06-26T12:03:06.853Z,4.30
2019-06-26T12:04:06.836Z,4.40
2019-06-26T12:05:06.852Z,4.90
2019-06-26T12:06:17.770Z,4.70
2019-06-26T12:07:07.818Z,4.40
2019-06-26T12:08:06.797Z,4.90
2019-06-26T12:09:06.802Z,4.80
2019-06-26T12:10:06.924Z,4.90
2019-06-26T12:11:06.767Z,4.90
2019-06-26T12:12:06.799Z,4.90
2019-06-26T12:13:06.811Z,4.80
2019-06-26T12:14:06.784Z,4.60
2019-06-26T12:15:06.784Z,5.60
2019-06-26T12:16:06.723Z,5.30
2019-06-26T12:17:06.784Z,5.10
2019-06-26T12:18:06.708Z,5.10
2019-06-26T12:19:06.695Z,4.90
2019-06-26T12:20:17.770Z,5.30
2019-06-26T12:21:07.670Z,5.20
2019-06-26T12:22:06.665Z,5.00
2019-06-26T12:23:06.651Z,5.10
2019-06-26T12:24:06.644Z,5.00
2019-06-26T12:25:06.858Z,5.40
2019-06-26T12:26:06.685Z,5.00
2019-06-26T12:27:06.675Z,5.20
2019-06-26T12:28:06.599Z,5.40
2019-06-26T12:29:06.597Z,4.80
2019-06-26T12:30:06.604Z,4.90
2019-06-26T12:31:06.577Z,4.90
2019-06-26T12:32:06.575Z,5.10
2019-06-26T12:33:06.555Z,4.90
2019-06-26T12:34:06.610Z,5.10
2019-06-26T12:35:06.553Z,5.10
2019-06-26T12:36:06.533Z,5.20
2019-06-26T12:37:06.557Z,4.80
2019-06-26T12:38:06.511Z,5.20
2019-06-26T12:39:06.494Z,4.70
2019-06-26T12:40:06.932Z,4.70
2019-06-26T12:41:06.473Z,5.00
2019-06-26T12:42:06.479Z,4.90
2019-06-26T12:43:06.457Z,4.90
2019-06-26T12:44:06.449Z,4.70
2019-06-26T12:45:06.864Z,5.00
2019-06-26T12:46:06.424Z,4.80
2019-06-26T12:47:06.415Z,5.30
2019-06-26T12:48:06.404Z,5.00
2019-06-26T12:49:06.419Z,5.10
2019-06-26T12:50:06.425Z,5.20
2019-06-26T12:51:06.375Z,4.70
2019-06-26T12:52:06.370Z,4.90
2019-06-26T12:53:06.370Z,5.30
2019-06-26T12:54:06.420Z,4.90
2019-06-26T12:55:06.353Z,4.80
2019-06-26T12:56:06.350Z,5.00
2019-06-26T12:57:06.372Z,4.80
2019-06-26T12:58:13.246Z,5.10
2019-06-26T12:59:07.347Z,4.80
2019-06-26T13:00:06.323Z,5.20
2019-06-26T13:01:06.270Z,4.60
2019-06-26T13:02:06.275Z,4.80
2019-06-26T13:03:06.262Z,4.60
2019-06-26T13:04:06.330Z,4.80
2019-06-26T13:05:06.249Z,4.40
2019-06-26T13:06:06.222Z,5.10
2019-06-26T13:07:06.209Z,4.60
2019-06-26T13:08:06.212Z,5.00